Time;durP1;ratioP1;P1;durP2;ratioP2;P2;SDS_P1;SDS_P2;PMS_P1;PMS_P2;Temp;Humidity;BMP_temperature;BMP_pressure;BME280_temperature;BME280_humidity;BME280_pressure;Samples;Min_cycle;Max_cycle;Signal;HPM_P1;HPM_P2
2023/05/22 00:00:18;;;;;;;32.67;24.50;;;16.20;99.90;;;;;;5071488;28;20835;-72
2023/05/22 00:02:44;;;;;;;32.20;24.30;;;16.20;99.90;;;;;;5068225;28;20586;-72
2023/05/22 00:05:11;;;;;;;33.77;24.50;;;16.20;99.90;;;;;;5073842;28;20283;-72
2023/05/22 00:07:38;;;;;;;36.53;24.83;;;16.20;99.90;;;;;;5070008;28;20041;-72
2023/05/22 00:10:05;;;;;;;36.20;24.13;;;16.20;99.90;;;;;;5070993;28;20782;-72
2023/05/22 00:12:31;;;;;;;36.00;26.27;;;16.20;99.90;;;;;;5070123;28;20376;-72
2023/05/22 00:14:56;;;;;;;50.17;29.20;;;16.20;99.90;;;;;;5053739;28;20332;-73
2023/05/22 00:17:23;;;;;;;45.83;28.13;;;16.20;99.90;;;;;;5054273;28;20428;-74
2023/05/22 00:19:50;;;;;;;41.47;28.17;;;16.10;99.90;;;;;;5055793;28;20040;-73
2023/05/22 00:22:16;;;;;;;41.23;30.67;;;16.00;99.90;;;;;;5053958;28;20282;-73
2023/05/22 00:24:41;;;;;;;38.97;28.13;;;15.90;99.90;;;;;;5068960;28;20291;-73
2023/05/22 00:27:07;;;;;;;42.00;29.33;;;15.90;99.90;;;;;;5055732;28;20388;-73
2023/05/22 00:29:33;;;;;;;41.50;30.40;;;15.90;99.90;;;;;;5073407;28;20144;-73
2023/05/22 00:31:59;;;;;;;39.87;29.43;;;15.90;99.90;;;;;;5064506;28;20036;-73
2023/05/22 00:34:24;;;;;;;45.47;31.53;;;15.90;99.90;;;;;;5059740;28;20060;-73
2023/05/22 00:36:50;;;;;;;36.27;27.93;;;15.90;99.90;;;;;;5068652;28;20106;-73
2023/05/22 00:39:16;;;;;;;45.53;31.00;;;15.90;99.90;;;;;;5077411;28;20552;-73
2023/05/22 00:41:41;;;;;;;41.53;29.97;;;15.90;99.90;;;;;;5074313;28;20040;-73
2023/05/22 00:44:09;;;;;;;41.50;30.40;;;15.90;99.90;;;;;;5080382;28;20040;-73
2023/05/22 00:46:35;;;;;;;38.70;29.07;;;15.80;99.90;;;;;;5060084;28;20037;-72
2023/05/22 00:49:00;;;;;;;41.63;29.80;;;15.80;99.90;;;;;;5077316;28;20286;-72
2023/05/22 00:51:27;;;;;;;37.57;28.10;;;15.90;99.90;;;;;;5068044;28;20286;-72
2023/05/22 00:53:53;;;;;;;38.37;28.90;;;15.90;99.90;;;;;;5054181;28;20562;-72
2023/05/22 00:56:20;;;;;;;37.90;27.20;;;15.90;99.90;;;;;;5070241;28;20291;-72
2023/05/22 00:58:46;;;;;;;36.37;26.77;;;15.90;99.90;;;;;;5070087;28;20345;-72
2023/05/22 01:01:12;;;;;;;36.80;28.90;;;15.80;99.90;;;;;;5073718;28;20319;-72
2023/05/22 01:03:43;;;;;;;37.97;29.60;;;15.80;99.90;;;;;;5055484;28;20119;-72
2023/05/22 01:06:10;;;;;;;39.93;29.73;;;15.80;99.90;;;;;;5055466;28;20310;-72
2023/05/22 01:08:36;;;;;;;40.70;30.33;;;15.80;99.90;;;;;;5068799;28;20303;-72
2023/05/22 01:11:24;;;;;;;40.97;30.20;;;15.90;99.90;;;;;;5053971;28;20321;-72
2023/05/22 01:14:19;;;;;;;40.50;30.27;;;15.90;99.90;;;;;;5066256;28;20098;-72
2023/05/22 01:16:55;;;;;;;37.70;28.88;;;15.90;99.90;;;;;;5054134;28;20612;-72
2023/05/22 01:19:49;;;;;;;36.93;29.50;;;16.00;99.90;;;;;;5074685;28;20040;-72
2023/05/22 01:22:37;;;;;;;35.80;27.97;;;16.00;99.90;;;;;;5055259;28;20322;-72
2023/05/22 01:25:40;;;;;;;43.67;32.23;;;16.00;99.90;;;;;;5068730;28;20286;-72
2023/05/22 01:28:25;;;;;;;41.20;30.87;;;16.00;99.90;;;;;;5069364;28;20297;-72
2023/05/22 01:31:03;;;;;;;41.57;32.20;;;16.00;99.90;;;;;;5072133;28;20286;-72
2023/05/22 01:33:42;;;;;;;40.77;32.00;;;16.10;99.90;;;;;;5058970;28;20368;-72
2023/05/22 01:36:10;;;;;;;45.10;32.67;;;16.00;99.90;;;;;;5091888;28;20273;-72
2023/05/22 01:38:36;;;;;;;46.33;33.57;;;16.10;99.90;;;;;;5073904;28;20313;-72
2023/05/22 01:41:03;;;;;;;41.17;31.87;;;16.00;99.90;;;;;;5091728;28;21685;-72
2023/05/22 01:43:28;;;;;;;43.73;32.23;;;16.10;99.90;;;;;;5092291;28;20036;-72
2023/05/22 01:45:54;;;;;;;42.57;32.43;;;16.10;99.90;;;;;;5091601;28;20285;-72
2023/05/22 01:48:20;;;;;;;38.33;29.13;;;16.10;99.90;;;;;;5074353;28;20079;-72
2023/05/22 01:50:50;;;;;;;38.43;29.53;;;16.10;99.90;;;;;;5075174;28;20063;-72
2023/05/22 01:53:32;;;;;;;40.03;29.17;;;16.10;99.90;;;;;;5092125;28;20546;-72
2023/05/22 01:56:13;;;;;;;33.10;26.57;;;16.10;99.90;;;;;;5075739;28;20293;-72
2023/05/22 01:58:51;;;;;;;35.83;28.07;;;16.10;99.90;;;;;;5088903;28;20301;-72
2023/05/22 02:01:20;;;;;;;35.37;26.80;;;16.20;99.90;;;;;;5092528;28;20769;-72
2023/05/22 02:03:50;;;;;;;36.63;28.93;;;16.20;99.90;;;;;;5072374;28;20341;-72
2023/05/22 02:06:18;;;;;;;41.93;29.80;;;16.20;99.90;;;;;;5091493;28;20372;-72
2023/05/22 02:08:44;;;;;;;36.87;29.33;;;16.20;99.90;;;;;;5069555;28;20297;-72
2023/05/22 02:11:12;;;;;;;44.70;32.97;;;16.20;99.90;;;;;;5091806;28;20427;-72
2023/05/22 02:13:39;;;;;;;44.43;32.20;;;16.10;99.90;;;;;;5091896;28;20277;-72
2023/05/22 02:16:05;;;;;;;44.23;32.80;;;16.10;99.90;;;;;;5092158;28;20281;-72
2023/05/22 02:18:31;;;;;;;41.07;32.73;;;16.10;99.90;;;;;;5075290;28;20449;-72
2023/05/22 02:20:58;;;;;;;41.80;33.10;;;16.10;99.90;;;;;;5073856;28;20360;-72
2023/05/22 02:23:24;;;;;;;44.60;32.50;;;16.00;99.90;;;;;;5075050;28;20055;-72
2023/05/22 02:25:49;;;;;;;44.23;33.03;;;16.00;99.90;;;;;;5090901;28;20330;-72
2023/05/22 02:28:15;;;;;;;46.57;33.30;;;16.00;99.90;;;;;;5077508;28;20289;-72
2023/05/22 02:30:41;;;;;;;41.20;31.37;;;16.00;99.90;;;;;;5076499;28;20047;-72
2023/05/22 02:33:08;;;;;;;42.30;32.10;;;16.00;99.90;;;;;;5076378;28;20528;-72
2023/05/22 02:35:34;;;;;;;42.50;33.00;;;15.90;99.90;;;;;;5074686;28;20491;-72
2023/05/22 02:38:00;;;;;;;41.90;32.83;;;15.90;99.90;;;;;;5073044;28;20297;-72
2023/05/22 02:40:26;;;;;;;42.17;33.30;;;15.90;99.90;;;;;;5091497;28;20414;-72
2023/05/22 02:42:51;;;;;;;43.37;32.87;;;15.90;99.90;;;;;;5088338;28;20302;-72
2023/05/22 02:45:17;;;;;;;48.07;34.60;;;15.90;99.90;;;;;;5090495;28;20451;-72
2023/05/22 02:47:43;;;;;;;45.07;32.83;;;15.90;99.90;;;;;;5074011;28;20248;-72
2023/05/22 02:50:09;;;;;;;44.43;33.60;;;15.90;99.90;;;;;;5069196;28;20096;-72
2023/05/22 02:52:35;;;;;;;46.70;34.53;;;15.90;99.90;;;;;;5090175;28;20445;-72
2023/05/22 02:55:03;;;;;;;45.63;34.07;;;15.90;99.90;;;;;;5091246;28;20299;-72
2023/05/22 02:57:29;;;;;;;46.37;35.00;;;15.90;99.90;;;;;;5074457;28;20776;-72
2023/05/22 02:59:56;;;;;;;45.57;34.47;;;15.90;99.90;;;;;;5073020;28;20308;-72
2023/05/22 03:02:25;;;;;;;45.10;33.90;;;15.90;99.90;;;;;;5087616;28;20691;-72
2023/05/22 03:04:50;;;;;;;47.30;34.97;;;15.90;99.90;;;;;;5073802;28;20317;-72
2023/05/22 03:07:16;;;;;;;46.87;34.40;;;15.80;99.90;;;;;;5073869;28;20554;-72
2023/05/22 03:09:42;;;;;;;44.37;34.27;;;15.80;99.90;;;;;;5090481;28;20427;-72
2023/05/22 03:12:08;;;;;;;42.80;33.47;;;15.80;99.90;;;;;;5090899;28;20064;-72
2023/05/22 03:14:35;;;;;;;46.93;33.83;;;15.80;99.90;;;;;;5072840;28;20093;-72
2023/05/22 03:17:01;;;;;;;44.93;34.37;;;15.80;99.90;;;;;;5090453;28;20342;-72
2023/05/22 03:19:26;;;;;;;50.23;35.83;;;15.80;99.90;;;;;;5090282;28;20726;-72
2023/05/22 03:21:52;;;;;;;48.80;35.50;;;15.70;99.90;;;;;;5093882;28;20035;-72
2023/05/22 03:24:18;;;;;;;45.87;34.93;;;15.70;99.90;;;;;;5073156;28;20035;-72
2023/05/22 03:26:43;;;;;;;45.20;35.63;;;15.70;99.90;;;;;;5091258;28;20300;-72
2023/05/22 03:29:09;;;;;;;47.17;35.67;;;15.60;99.90;;;;;;5095306;28;20046;-72
2023/05/22 03:31:35;;;;;;;47.27;34.87;;;15.60;99.90;;;;;;5088379;28;20484;-71
2023/05/22 03:34:01;;;;;;;47.10;35.30;;;15.60;99.90;;;;;;5088882;28;20055;-73
2023/05/22 03:36:28;;;;;;;49.30;35.23;;;15.60;99.90;;;;;;5072736;28;20467;-72
2023/05/22 03:38:54;;;;;;;45.23;34.87;;;15.50;99.90;;;;;;5072550;28;20317;-72
2023/05/22 03:41:20;;;;;;;48.63;35.50;;;15.50;99.90;;;;;;5089651;28;20803;-73
2023/05/22 03:43:45;;;;;;;52.20;36.03;;;15.50;99.90;;;;;;5088370;28;20038;-73
2023/05/22 03:46:11;;;;;;;50.50;35.50;;;15.40;99.90;;;;;;5072939;28;20463;-72
2023/05/22 03:48:38;;;;;;;51.47;35.33;;;15.40;99.90;;;;;;5088130;28;20036;-72
2023/05/22 03:51:04;;;;;;;46.67;34.53;;;15.30;99.90;;;;;;5090839;28;20124;-72
2023/05/22 03:53:30;;;;;;;49.13;36.57;;;15.30;99.90;;;;;;5079832;28;20784;-72
2023/05/22 03:55:58;;;;;;;50.70;36.07;;;15.30;99.90;;;;;;5089534;28;20287;-72
2023/05/22 03:58:24;;;;;;;49.13;36.17;;;15.30;99.90;;;;;;5073175;28;20507;-72
2023/05/22 04:00:52;;;;;;;49.80;35.53;;;15.30;99.90;;;;;;5073006;28;20305;-72
2023/05/22 04:03:18;;;;;;;49.17;34.70;;;15.30;99.90;;;;;;5093366;28;20287;-72
2023/05/22 04:05:47;;;;;;;57.47;35.33;;;15.30;99.90;;;;;;5087940;28;20289;-72
2023/05/22 04:08:12;;;;;;;50.00;34.97;;;15.20;99.90;;;;;;5090542;28;20118;-72
2023/05/22 04:10:38;;;;;;;55.40;36.00;;;15.20;99.90;;;;;;5089406;28;20364;-72
2023/05/22 04:13:05;;;;;;;48.97;35.53;;;15.20;99.90;;;;;;5073591;28;20039;-72
2023/05/22 04:15:33;;;;;;;51.37;34.73;;;15.20;99.90;;;;;;5072201;28;20036;-72
2023/05/22 04:18:02;;;;;;;52.33;36.47;;;15.20;99.90;;;;;;5073433;28;20273;-72
2023/05/22 04:20:27;;;;;;;49.47;34.00;;;15.30;99.90;;;;;;5093183;28;20274;-72
2023/05/22 04:22:53;;;;;;;51.13;34.17;;;15.30;99.90;;;;;;5075594;28;20321;-72
2023/05/22 04:25:20;;;;;;;53.50;35.43;;;15.30;99.90;;;;;;5089674;28;20110;-72
2023/05/22 04:27:46;;;;;;;52.13;34.60;;;15.30;99.90;;;;;;5094580;28;20052;-72
2023/05/22 04:30:13;;;;;;;58.50;35.40;;;15.30;99.90;;;;;;5077345;28;20629;-72
2023/05/22 04:32:39;;;;;;;53.63;35.33;;;15.30;99.90;;;;;;5080621;28;20372;-72
2023/05/22 04:35:05;;;;;;;51.40;36.00;;;15.30;99.90;;;;;;5088912;28;20333;-72
2023/05/22 04:37:31;;;;;;;54.20;35.47;;;15.30;99.90;;;;;;5073292;28;20320;-72
2023/05/22 04:40:03;;;;;;;48.93;34.47;;;15.30;99.90;;;;;;5090385;28;20407;-72
2023/05/22 04:42:30;;;;;;;51.60;34.63;;;15.30;99.90;;;;;;5085873;28;20074;-72
2023/05/22 04:44:56;;;;;;;51.03;34.77;;;15.30;99.90;;;;;;5092030;28;20816;-72
2023/05/22 04:47:22;;;;;;;54.70;35.00;;;15.30;99.90;;;;;;5075791;28;20046;-72
2023/05/22 04:49:48;;;;;;;50.87;35.07;;;15.40;99.90;;;;;;5076097;28;20286;-72
2023/05/22 04:52:14;;;;;;;51.37;36.40;;;15.40;99.90;;;;;;5074174;28;20281;-72
2023/05/22 04:54:42;;;;;;;51.07;35.70;;;15.40;99.90;;;;;;5093203;28;20533;-72
2023/05/22 04:57:07;;;;;;;52.80;34.73;;;15.50;99.90;;;;;;5071391;28;20035;-71
2023/05/22 04:59:38;;;;;;;52.57;35.97;;;15.50;99.90;;;;;;5073791;28;20872;-72
2023/05/22 05:02:07;;;;;;;50.97;34.60;;;15.50;99.90;;;;;;5074516;28;20096;-72
2023/05/22 05:04:33;;;;;;;48.33;34.47;;;15.50;99.90;;;;;;5071698;28;20707;-72
2023/05/22 05:06:59;;;;;;;51.67;34.57;;;15.50;99.90;;;;;;5075386;28;20307;-73
2023/05/22 05:09:24;;;;;;;46.63;33.53;;;15.60;99.90;;;;;;5100576;28;20277;-72
2023/05/22 05:11:51;;;;;;;41.83;29.00;;;15.50;99.90;;;;;;5092262;28;20146;-72
2023/05/22 05:14:18;;;;;;;44.07;25.07;;;15.50;99.90;;;;;;5094165;28;20660;-72
2023/05/22 05:16:44;;;;;;;38.93;22.50;;;15.50;99.90;;;;;;5093157;28;20751;-72
2023/05/22 05:19:09;;;;;;;32.97;20.93;;;15.50;99.90;;;;;;5093340;28;20332;-72
2023/05/22 05:21:35;;;;;;;32.87;20.50;;;15.40;99.90;;;;;;5077278;28;20445;-72
2023/05/22 05:24:01;;;;;;;31.07;18.67;;;15.40;99.90;;;;;;5072975;28;20036;-72
2023/05/22 05:26:27;;;;;;;29.13;18.10;;;15.30;99.90;;;;;;5077679;27;20035;-72
2023/05/22 05:28:53;;;;;;;28.97;16.80;;;15.30;99.90;;;;;;5081805;27;20829;-72
2023/05/22 05:31:22;;;;;;;35.30;16.17;;;15.30;99.90;;;;;;5073530;28;20065;-72
2023/05/22 05:33:48;;;;;;;32.73;16.03;;;15.20;99.90;;;;;;5066148;28;20115;-72
2023/05/22 05:36:15;;;;;;;25.60;15.03;;;15.20;99.90;;;;;;5074255;28;20286;-72
2023/05/22 05:38:41;;;;;;;24.40;14.23;;;15.20;99.90;;;;;;5074879;28;20321;-72
2023/05/22 05:41:06;;;;;;;27.97;14.80;;;15.20;99.90;;;;;;5075211;28;20734;-73
2023/05/22 05:43:32;;;;;;;27.00;13.40;;;15.20;99.90;;;;;;5076026;28;20028;-72
2023/05/22 05:45:58;;;;;;;27.23;13.57;;;15.30;99.90;;;;;;5091663;28;20035;-73
2023/05/22 05:48:24;;;;;;;24.83;13.40;;;15.30;99.90;;;;;;5092550;28;20172;-73
2023/05/22 05:50:49;;;;;;;21.17;12.80;;;15.30;99.90;;;;;;5089117;28;20368;-73
2023/05/22 05:53:15;;;;;;;31.20;13.33;;;15.40;99.90;;;;;;5092710;28;20451;-72
2023/05/22 05:55:41;;;;;;;28.80;13.70;;;15.40;99.90;;;;;;5091661;28;20043;-72
2023/05/22 05:58:07;;;;;;;21.73;12.97;;;15.40;99.90;;;;;;5092091;28;20142;-72
2023/05/22 06:00:32;;;;;;;26.33;12.53;;;15.50;99.90;;;;;;5092172;28;20522;-72
2023/05/22 06:02:58;;;;;;;21.83;12.20;;;15.50;99.90;;;;;;5077501;27;20039;-72
2023/05/22 06:05:25;;;;;;;25.57;12.60;;;15.50;99.90;;;;;;5093339;28;20040;-72
2023/05/22 06:07:51;;;;;;;25.60;11.80;;;15.50;99.90;;;;;;5092871;28;20036;-72
2023/05/22 06:10:17;;;;;;;30.23;13.83;;;15.50;99.90;;;;;;5075471;28;20738;-72
2023/05/22 06:12:43;;;;;;;28.00;11.87;;;15.50;99.90;;;;;;5107554;28;20407;-73
2023/05/22 06:15:08;;;;;;;27.90;11.20;;;15.60;99.90;;;;;;5092354;28;20043;-72
2023/05/22 06:17:35;;;;;;;20.53;10.60;;;15.60;99.90;;;;;;5075336;28;20040;-72
2023/05/22 06:20:04;;;;;;;18.17;11.53;;;15.60;99.90;;;;;;5095310;27;20115;-72
2023/05/22 06:22:30;;;;;;;23.27;11.13;;;15.60;99.90;;;;;;5073969;28;20281;-73
2023/05/22 06:24:55;;;;;;;19.83;10.67;;;15.60;99.90;;;;;;5075211;28;20325;-73
2023/05/22 06:27:22;;;;;;;16.47;10.70;;;15.60;99.90;;;;;;5096780;28;20374;-72
2023/05/22 06:29:48;;;;;;;22.33;10.40;;;15.60;99.90;;;;;;5081926;28;20039;-72
2023/05/22 06:32:15;;;;;;;21.07;10.73;;;15.60;99.90;;;;;;5090846;28;20360;-72
2023/05/22 06:34:43;;;;;;;20.67;10.90;;;15.60;99.90;;;;;;5086996;28;20351;-72
2023/05/22 06:37:09;;;;;;;18.13;9.83;;;15.70;99.90;;;;;;5066391;28;20282;-72
2023/05/22 06:39:34;;;;;;;19.17;9.77;;;15.70;99.90;;;;;;5070827;28;20309;-72
2023/05/22 06:42:00;;;;;;;18.67;10.83;;;15.80;99.90;;;;;;5087744;28;20285;-72
2023/05/22 06:44:26;;;;;;;17.03;10.50;;;15.90;99.90;;;;;;5071213;28;20040;-72
2023/05/22 06:46:52;;;;;;;17.40;10.30;;;15.90;99.90;;;;;;5071418;28;20027;-72
2023/05/22 06:49:18;;;;;;;18.93;9.80;;;16.00;99.90;;;;;;5071350;28;20124;-72
2023/05/22 06:51:45;;;;;;;18.20;9.73;;;16.00;99.90;;;;;;5087902;28;20039;-72
2023/05/22 06:54:12;;;;;;;17.33;9.60;;;16.10;99.90;;;;;;5070712;28;20698;-72
2023/05/22 06:56:39;;;;;;;14.47;9.83;;;16.20;99.90;;;;;;5087623;28;20282;-72
2023/05/22 06:59:04;;;;;;;15.93;9.90;;;16.30;99.90;;;;;;5066017;28;20302;-72
2023/05/22 07:01:30;;;;;;;15.80;9.53;;;16.40;99.90;;;;;;5087577;28;20286;-72
2023/05/22 07:04:00;;;;;;;18.87;9.93;;;16.50;99.90;;;;;;5071095;28;20035;-72
2023/05/22 07:06:26;;;;;;;17.30;9.80;;;16.60;99.90;;;;;;5088591;28;20035;-73
2023/05/22 07:08:52;;;;;;;21.53;10.10;;;16.70;99.90;;;;;;5072984;28;20877;-73
2023/05/22 07:11:18;;;;;;;20.43;10.20;;;16.70;99.90;;;;;;5089103;28;20357;-74
2023/05/22 07:13:44;;;;;;;16.77;10.07;;;16.70;99.90;;;;;;5071317;28;20040;-74
2023/05/22 07:16:10;;;;;;;19.10;9.80;;;16.80;99.90;;;;;;5093596;28;20352;-74
2023/05/22 07:18:35;;;;;;;22.67;10.13;;;17.00;99.90;;;;;;5089035;28;20070;-74
2023/05/22 07:21:01;;;;;;;18.43;10.00;;;17.10;99.90;;;;;;5092615;28;20381;-74
2023/05/22 07:23:27;;;;;;;17.70;9.77;;;17.30;99.90;;;;;;5071950;28;20492;-73
2023/05/22 07:25:53;;;;;;;15.97;9.60;;;17.40;99.90;;;;;;5072456;28;20122;-73
2023/05/22 07:28:18;;;;;;;16.80;9.47;;;17.50;99.90;;;;;;5095232;28;20028;-74
2023/05/22 07:30:44;;;;;;;15.60;8.97;;;17.70;99.90;;;;;;5085207;28;20028;-75
2023/05/22 07:33:10;;;;;;;14.40;9.33;;;17.90;99.90;;;;;;5080148;28;20238;-77
2023/05/22 07:35:36;;;;;;;15.37;8.60;;;18.00;99.90;;;;;;5070848;28;20699;-75
2023/05/22 07:38:02;;;;;;;12.60;8.90;;;18.00;99.90;;;;;;5071878;28;20268;-75
2023/05/22 07:40:28;;;;;;;18.13;9.97;;;18.00;99.90;;;;;;5072047;28;20036;-74
2023/05/22 07:42:54;;;;;;;16.57;9.33;;;18.00;99.90;;;;;;5088434;28;20275;-74
2023/05/22 07:45:20;;;;;;;14.43;9.80;;;18.10;99.90;;;;;;5087390;28;20145;-74
2023/05/22 07:47:46;;;;;;;15.90;9.60;;;18.20;99.90;;;;;;5069122;28;20097;-74
2023/05/22 07:50:11;;;;;;;14.90;8.87;;;18.30;99.90;;;;;;5071254;28;20036;-74
2023/05/22 07:52:37;;;;;;;15.27;8.40;;;18.30;99.90;;;;;;5072970;28;20511;-74
2023/05/22 07:55:04;;;;;;;12.67;8.60;;;18.40;99.90;;;;;;5088421;28;20040;-74
2023/05/22 07:57:29;;;;;;;14.40;8.83;;;18.50;99.90;;;;;;5088286;28;20079;-74
2023/05/22 07:59:55;;;;;;;14.77;8.73;;;18.60;99.90;;;;;;5088614;28;20729;-75
2023/05/22 08:02:21;;;;;;;15.27;8.03;;;18.70;99.90;;;;;;5090283;28;20040;-75
2023/05/22 08:04:49;;;;;;;12.57;7.40;;;18.70;99.90;;;;;;5075543;28;20040;-74
2023/05/22 08:07:14;;;;;;;12.53;7.07;;;18.70;99.90;;;;;;5088900;28;20314;-74
2023/05/22 08:09:40;;;;;;;12.60;7.13;;;18.70;99.90;;;;;;5071730;28;20317;-74
2023/05/22 08:12:06;;;;;;;15.10;7.83;;;18.60;99.90;;;;;;5071208;28;20492;-74
2023/05/22 08:14:32;;;;;;;13.67;6.87;;;18.60;99.90;;;;;;5088297;28;20068;-74
2023/05/22 08:16:59;;;;;;;13.50;6.87;;;18.50;99.90;;;;;;5088172;28;20317;-74
2023/05/22 08:19:25;;;;;;;13.27;5.77;;;18.50;99.90;;;;;;5088742;28;20403;-75
2023/05/22 08:21:56;;;;;;;11.27;5.93;;;18.50;99.90;;;;;;5095851;28;20286;-74
2023/05/22 08:24:27;;;;;;;8.77;5.20;;;18.50;99.90;;;;;;5091740;28;20107;-74
2023/05/22 08:26:53;;;;;;;6.57;4.83;;;18.40;99.90;;;;;;5080791;28;20274;-74
2023/05/22 08:29:19;;;;;;;8.63;4.13;;;18.40;99.90;;;;;;5096206;28;20312;-74
2023/05/22 08:31:45;;;;;;;8.33;4.30;;;18.40;99.90;;;;;;5089620;28;20286;-74
2023/05/22 08:34:11;;;;;;;7.27;4.67;;;18.40;99.90;;;;;;5074041;28;20535;-74
2023/05/22 08:36:36;;;;;;;8.93;4.37;;;18.30;99.90;;;;;;5074004;28;20439;-74
2023/05/22 08:39:02;;;;;;;9.03;4.50;;;18.30;99.90;;;;;;5075058;28;20123;-75
2023/05/22 08:41:28;;;;;;;9.13;4.63;;;18.30;99.90;;;;;;5074421;28;20419;-74
2023/05/22 08:43:54;;;;;;;8.10;4.13;;;18.30;99.90;;;;;;5072266;28;20126;-74
2023/05/22 08:46:24;;;;;;;6.80;4.03;;;18.30;99.90;;;;;;5072679;28;20373;-74
2023/05/22 08:48:50;;;;;;;7.67;4.57;;;18.20;99.90;;;;;;5095099;28;20044;-74
2023/05/22 08:51:18;;;;;;;7.83;3.97;;;18.30;99.90;;;;;;5089628;28;20786;-74
2023/05/22 08:53:47;;;;;;;9.00;4.20;;;18.30;99.90;;;;;;5068546;28;20708;-74
2023/05/22 08:56:13;;;;;;;6.23;4.10;;;18.30;99.90;;;;;;5073741;28;20285;-74
2023/05/22 08:58:40;;;;;;;5.57;4.17;;;18.40;99.90;;;;;;5086360;28;20297;-73
2023/05/22 09:01:06;;;;;;;5.93;4.03;;;18.40;99.90;;;;;;5073840;28;20381;-73
2023/05/22 09:03:34;;;;;;;6.20;4.20;;;18.30;99.90;;;;;;5093068;28;20479;-75
2023/05/22 09:06:00;;;;;;;5.50;4.00;;;18.40;99.90;;;;;;5091381;28;20670;-74
2023/05/22 09:08:27;;;;;;;7.13;4.10;;;18.50;99.90;;;;;;5092019;28;20286;-74
2023/05/22 09:10:55;;;;;;;6.60;4.43;;;18.60;99.90;;;;;;5076128;28;20278;-74
2023/05/22 09:13:28;;;;;;;9.23;5.00;;;18.80;99.90;;;;;;5092749;28;20285;-74
2023/05/22 09:16:13;;;;;;;9.43;5.83;;;19.00;99.90;;;;;;5093157;28;20282;-74
2023/05/22 09:18:40;;;;;;;7.10;6.40;;;19.10;99.90;;;;;;5072715;28;20298;-74
2023/05/22 09:21:07;;;;;;;9.97;6.73;;;19.30;99.90;;;;;;5089150;28;20488;-74
2023/05/22 09:23:33;;;;;;;9.63;6.70;;;19.30;99.90;;;;;;5089680;28;20281;-74
2023/05/22 09:26:00;;;;;;;10.50;7.27;;;19.40;99.90;;;;;;5072670;28;20676;-74
2023/05/22 09:28:32;;;;;;;10.47;6.13;;;19.50;99.90;;;;;;5072156;28;20474;-74
2023/05/22 09:31:02;;;;;;;9.23;6.60;;;19.60;99.90;;;;;;5073142;28;20042;-74
2023/05/22 09:33:29;;;;;;;8.53;6.60;;;19.60;99.90;;;;;;5089676;28;20044;-74
2023/05/22 09:35:54;;;;;;;9.37;6.57;;;19.50;99.90;;;;;;5084305;28;20530;-74
2023/05/22 09:38:22;;;;;;;10.03;6.80;;;19.50;99.90;;;;;;5069055;28;20076;-74
2023/05/22 09:40:52;;;;;;;10.20;6.77;;;19.50;99.90;;;;;;5053052;28;20383;-73
2023/05/22 09:43:18;;;;;;;10.43;6.87;;;19.50;99.90;;;;;;5074994;28;20040;-73
2023/05/22 09:45:44;;;;;;;9.47;7.17;;;19.50;99.90;;;;;;5052183;28;20116;-73
2023/05/22 09:48:11;;;;;;;9.80;7.10;;;19.50;99.90;;;;;;5055634;28;20059;-73
2023/05/22 09:50:38;;;;;;;10.27;7.27;;;19.50;99.90;;;;;;5069803;28;20052;-73
2023/05/22 09:53:04;;;;;;;8.90;7.53;;;19.60;99.90;;;;;;5073881;28;20449;-73
2023/05/22 09:55:30;;;;;;;9.20;7.10;;;19.60;99.90;;;;;;5075702;28;20059;-73
2023/05/22 09:58:01;;;;;;;10.97;7.27;;;19.60;99.90;;;;;;5070498;28;20151;-73
2023/05/22 10:00:28;;;;;;;8.63;7.23;;;19.70;99.90;;;;;;5064454;28;20457;-74
2023/05/22 10:03:08;;;;;;;9.33;8.00;;;19.80;99.90;;;;;;5074636;28;20116;-74
2023/05/22 10:05:36;;;;;;;11.47;7.43;;;19.80;98.60;;;;;;5068098;28;20040;-74
2023/05/22 10:08:12;;;;;;;11.27;7.73;;;19.80;99.90;;;;;;5072698;28;20044;-74
2023/05/22 10:10:40;;;;;;;10.77;8.90;;;19.90;97.20;;;;;;5068648;28;20500;-74
2023/05/22 10:13:06;;;;;;;13.47;9.23;;;19.90;98.30;;;;;;5042774;28;20040;-74
2023/05/22 10:15:33;;;;;;;10.90;8.77;;;20.10;97.70;;;;;;5054809;28;20051;-74
2023/05/22 10:17:59;;;;;;;13.47;9.17;;;20.30;97.10;;;;;;5054909;28;20135;-74
2023/05/22 10:20:27;;;;;;;12.20;9.53;;;20.40;97.40;;;;;;5068782;28;20041;-74
2023/05/22 10:22:54;;;;;;;13.40;9.70;;;20.60;96.90;;;;;;5065915;28;20060;-75
2023/05/22 10:25:22;;;;;;;12.93;8.37;;;20.80;98.20;;;;;;5068074;28;20040;-74
2023/05/22 10:27:51;;;;;;;12.17;10.00;;;21.10;98.00;;;;;;5051622;28;20040;-74
2023/05/22 10:30:23;;;;;;;13.07;9.63;;;21.30;95.40;;;;;;5070636;28;20320;-74
2023/05/22 10:32:59;;;;;;;12.70;9.40;;;21.50;95.10;;;;;;5068570;28;20032;-74
2023/05/22 10:35:39;;;;;;;13.40;9.13;;;21.50;91.40;;;;;;5057117;28;20067;-74
2023/05/22 10:38:19;;;;;;;11.63;9.80;;;21.50;93.20;;;;;;5087997;28;20056;-74
2023/05/22 10:40:46;;;;;;;11.53;10.00;;;21.60;93.50;;;;;;5079994;28;20400;-75
2023/05/22 10:43:12;;;;;;;11.27;9.80;;;21.70;93.80;;;;;;5088729;28;20040;-75
2023/05/22 10:45:38;;;;;;;13.57;10.23;;;21.70;91.80;;;;;;5087116;28;20028;-74
2023/05/22 10:48:10;;;;;;;15.90;10.53;;;21.80;91.50;;;;;;5087791;28;20036;-74
2023/05/22 10:50:37;;;;;;;13.23;10.13;;;21.80;92.20;;;;;;5071468;28;20071;-74
2023/05/22 10:53:21;;;;;;;12.70;10.47;;;21.80;92.70;;;;;;5071077;28;20040;-72
2023/05/22 10:55:52;;;;;;;12.23;10.80;;;21.80;90.80;;;;;;5087404;28;20036;-73
2023/05/22 10:58:28;;;;;;;13.13;9.80;;;21.80;91.80;;;;;;5066818;28;20067;-73
2023/05/22 11:01:20;;;;;;;13.43;10.20;;;21.70;91.50;;;;;;5071282;28;20482;-73
2023/05/22 11:03:55;;;;;;;13.83;9.97;;;21.80;89.20;;;;;;5089212;28;20048;-73
2023/05/22 11:06:44;;;;;;;11.73;9.70;;;21.90;88.40;;;;;;5086613;28;20047;-73
2023/05/22 11:09:29;;;;;;;11.40;10.03;;;22.10;90.10;;;;;;5087316;28;20056;-73
2023/05/22 11:12:16;;;;;;;13.77;10.70;;;22.30;89.90;;;;;;5070848;28;20163;-73
2023/05/22 11:14:55;;;;;;;13.23;10.90;;;22.50;84.80;;;;;;5070680;28;20082;-73
2023/05/22 11:17:26;;;;;;;14.50;11.27;;;22.40;85.90;;;;;;5070631;28;20044;-74
2023/05/22 11:20:04;;;;;;;14.47;11.27;;;22.20;85.90;;;;;;5087348;28;20123;-74
2023/05/22 11:22:30;;;;;;;14.67;10.93;;;22.10;86.90;;;;;;5069981;28;20370;-75
2023/05/22 11:24:56;;;;;;;14.30;11.27;;;21.90;86.40;;;;;;5071521;28;20054;-74
2023/05/22 11:27:22;;;;;;;12.17;10.97;;;21.80;87.40;;;;;;5087225;28;20503;-74
2023/05/22 11:29:48;;;;;;;14.63;11.20;;;21.80;87.90;;;;;;5088952;28;20032;-74
2023/05/22 11:32:19;;;;;;;11.90;10.70;;;21.80;88.90;;;;;;5088868;28;20047;-74
2023/05/22 11:34:48;;;;;;;11.63;10.47;;;22.00;88.60;;;;;;5092300;28;20681;-74
2023/05/22 11:37:17;;;;;;;12.30;10.03;;;22.30;88.80;;;;;;5096790;28;20112;-74
2023/05/22 11:39:57;;;;;;;11.20;9.37;;;22.60;88.60;;;;;;5076905;28;20032;-74
2023/05/22 11:42:24;;;;;;;12.23;10.70;;;22.80;85.40;;;;;;5096599;28;20042;-74
2023/05/22 11:44:49;;;;;;;15.57;10.70;;;23.00;85.90;;;;;;5077579;28;20030;-74
2023/05/22 11:47:15;;;;;;;13.03;10.47;;;23.10;86.20;;;;;;5073440;28;20044;-74
2023/05/22 11:49:41;;;;;;;12.30;10.67;;;23.00;85.40;;;;;;5072906;28;20047;-74
2023/05/22 11:52:10;;;;;;;13.77;10.27;;;22.90;85.10;;;;;;5072936;28;20518;-74
2023/05/22 11:54:39;;;;;;;12.43;10.97;;;22.90;86.80;;;;;;5071641;28;20079;-74
2023/05/22 11:57:08;;;;;;;15.17;11.20;;;23.00;86.30;;;;;;5071285;28;20127;-74
2023/05/22 11:59:34;;;;;;;15.03;11.47;;;22.90;85.00;;;;;;5100027;28;20039;-75
2023/05/22 12:02:03;;;;;;;12.47;11.17;;;23.00;85.60;;;;;;5087610;28;20039;-73
2023/05/22 12:04:31;;;;;;;14.27;11.43;;;23.00;85.00;;;;;;5079824;28;20043;-74
2023/05/22 12:06:57;;;;;;;13.20;11.13;;;22.90;85.00;;;;;;5072346;28;20051;-73
2023/05/22 12:09:23;;;;;;;12.87;11.27;;;22.80;84.70;;;;;;5072160;28;20036;-74
2023/05/22 12:11:49;;;;;;;14.93;11.17;;;22.70;85.30;;;;;;5071067;28;20044;-74
2023/05/22 12:14:14;;;;;;;13.70;10.97;;;22.70;85.70;;;;;;5071342;28;20036;-75
2023/05/22 12:16:40;;;;;;;13.33;11.43;;;22.80;86.10;;;;;;5088546;28;20043;-75
2023/05/22 12:19:07;;;;;;;14.27;11.03;;;22.90;85.10;;;;;;5071380;28;20041;-75
2023/05/22 12:21:37;;;;;;;15.80;11.43;;;22.90;84.50;;;;;;5072005;28;20071;-73
2023/05/22 12:24:04;;;;;;;12.23;10.83;;;22.90;83.90;;;;;;5072251;28;20036;-74
2023/05/22 12:26:35;;;;;;;12.70;10.87;;;23.00;85.30;;;;;;5089978;28;20040;-74
2023/05/22 12:29:01;;;;;;;12.17;10.40;;;23.10;84.70;;;;;;5093007;28;20039;-76
2023/05/22 12:31:27;;;;;;;15.80;11.60;;;23.10;83.60;;;;;;5095534;28;20044;-75
2023/05/22 12:33:56;;;;;;;14.97;11.40;;;23.10;81.30;;;;;;5088564;28;20150;-73